sensor_id;sensor_type;location;lat;lon;timestamp;pressure;altitude;pressure_sealevel;temperature;humidity
40992;BME280;29633;49.168;9.848;2023-04-28T00:00:52;96732.28;;;15.24;56.14
40992;BME280;29633;49.168;9.848;2023-04-28T00:03:18;96728.19;;;15.21;56.07
40992;BME280;29633;49.168;9.848;2023-04-28T00:05:47;96729.00;;;15.22;56.08
40992;BME280;29633;49.168;9.848;2023-04-28T00:08:14;96725.72;;;15.20;56.25
40992;BME280;29633;49.168;9.848;2023-04-28T00:10:42;96720.66;;;15.18;56.23
40992;BME280;29633;49.168;9.848;2023-04-28T00:13:07;96719.16;;;15.16;56.28
40992;BME280;29633;49.168;9.848;2023-04-28T00:15:35;96713.28;;;15.14;56.30
40992;BME280;29633;49.168;9.848;2023-04-28T00:18:01;96712.63;;;15.12;56.32
40992;BME280;29633;49.168;9.848;2023-04-28T00:20:27;96704.78;;;15.12;56.43
40992;BME280;29633;49.168;9.848;2023-04-28T00:22:53;96708.06;;;15.14;56.25
40992;BME280;29633;49.168;9.848;2023-04-28T00:25:19;96698.56;;;15.13;56.43
40992;BME280;29633;49.168;9.848;2023-04-28T00:27:45;96694.34;;;15.12;56.35
40992;BME280;29633;49.168;9.848;2023-04-28T00:30:11;96686.53;;;15.12;56.48
40992;BME280;29633;49.168;9.848;2023-04-28T00:32:36;96686.53;;;15.12;56.49
40992;BME280;29633;49.168;9.848;2023-04-28T00:35:02;96682.09;;;15.12;56.50
40992;BME280;29633;49.168;9.848;2023-04-28T00:37:28;96680.31;;;15.13;56.56
40992;BME280;29633;49.168;9.848;2023-04-28T00:39:54;96686.53;;;15.12;56.71
40992;BME280;29633;49.168;9.848;2023-04-28T00:42:20;96687.47;;;15.11;56.67
40992;BME280;29633;49.168;9.848;2023-04-28T00:44:46;96681.28;;;15.12;56.71
40992;BME280;29633;49.168;9.848;2023-04-28T00:47:11;96683.75;;;15.13;56.66
40992;BME280;29633;49.168;9.848;2023-04-28T00:49:37;96691.44;;;15.15;56.64
40992;BME280;29633;49.168;9.848;2023-04-28T00:52:04;96688.66;;;15.16;56.37
40992;BME280;29633;49.168;9.848;2023-04-28T00:54:34;96685.38;;;15.14;56.69
40992;BME280;29633;49.168;9.848;2023-04-28T00:57:00;96674.13;;;15.14;56.79
40992;BME280;29633;49.168;9.848;2023-04-28T00:59:27;96673.16;;;15.15;56.81
40992;BME280;29633;49.168;9.848;2023-04-28T01:01:53;96673.97;;;15.15;56.85
40992;BME280;29633;49.168;9.848;2023-04-28T01:04:22;96675.44;;;15.18;56.86
40992;BME280;29633;49.168;9.848;2023-04-28T01:06:51;96675.28;;;15.19;56.84
40992;BME280;29633;49.168;9.848;2023-04-28T01:09:17;96675.28;;;15.19;56.87
40992;BME280;29633;49.168;9.848;2023-04-28T01:11:43;96672.00;;;15.17;56.99
40992;BME280;29633;49.168;9.848;2023-04-28T01:14:09;96674.63;;;15.17;56.98
40992;BME280;29633;49.168;9.848;2023-04-28T01:16:34;96673.66;;;15.18;56.98
40992;BME280;29633;49.168;9.848;2023-04-28T01:19:02;96668.28;;;15.20;57.03
40992;BME280;29633;49.168;9.848;2023-04-28T01:21:29;96665.50;;;15.21;56.96
40992;BME280;29633;49.168;9.848;2023-04-28T01:23:59;96665.50;;;15.21;57.19
40992;BME280;29633;49.168;9.848;2023-04-28T01:26:25;96669.59;;;15.24;57.15
40992;BME280;29633;49.168;9.848;2023-04-28T01:28:51;96671.25;;;15.25;57.20
40992;BME280;29633;49.168;9.848;2023-04-28T01:31:17;96670.44;;;15.24;57.17
40992;BME280;29633;49.168;9.848;2023-04-28T01:33:42;96669.28;;;15.27;57.30
40992;BME280;29633;49.168;9.848;2023-04-28T01:36:08;96669.28;;;15.27;57.34
40992;BME280;29633;49.168;9.848;2023-04-28T01:38:34;96670.28;;;15.26;57.38
40992;BME280;29633;49.168;9.848;2023-04-28T01:40:59;96663.41;;;15.25;57.40
40992;BME280;29633;49.168;9.848;2023-04-28T01:43:28;96653.09;;;15.23;57.54
40992;BME280;29633;49.168;9.848;2023-04-28T01:45:53;96641.56;;;15.26;57.54
40992;BME280;29633;49.168;9.848;2023-04-28T01:48:19;96645.97;;;15.25;57.46
40992;BME280;29633;49.168;9.848;2023-04-28T01:50:45;96643.81;;;15.21;57.66
40992;BME280;29633;49.168;9.848;2023-04-28T01:53:11;96636.78;;;15.21;57.48
40992;BME280;29633;49.168;9.848;2023-04-28T01:55:38;96636.63;;;15.23;57.45
40992;BME280;29633;49.168;9.848;2023-04-28T01:58:04;96641.84;;;15.23;57.41
40992;BME280;29633;49.168;9.848;2023-04-28T02:00:29;96643.94;;;15.19;57.63
40992;BME280;29633;49.168;9.848;2023-04-28T02:02:55;96629.28;;;15.18;58.02
40992;BME280;29633;49.168;9.848;2023-04-28T02:05:21;96624.25;;;15.25;57.75
40992;BME280;29633;49.168;9.848;2023-04-28T02:07:46;96633.72;;;15.26;57.67
40992;BME280;29633;49.168;9.848;2023-04-28T02:10:12;96633.41;;;15.29;57.61
40992;BME280;29633;49.168;9.848;2023-04-28T02:12:37;96640.28;;;15.30;57.64
40992;BME280;29633;49.168;9.848;2023-04-28T02:15:03;96622.78;;;15.31;57.70
40992;BME280;29633;49.168;9.848;2023-04-28T02:17:29;96630.47;;;15.32;57.64
40992;BME280;29633;49.168;9.848;2023-04-28T02:19:55;96623.59;;;15.31;57.78
40992;BME280;29633;49.168;9.848;2023-04-28T02:22:21;96615.13;;;15.29;57.91
40992;BME280;29633;49.168;9.848;2023-04-28T02:24:47;96613.97;;;15.32;57.88
40992;BME280;29633;49.168;9.848;2023-04-28T02:27:13;96615.78;;;15.31;57.89
40992;BME280;29633;49.168;9.848;2023-04-28T02:29:39;96611.06;;;15.35;58.14
40992;BME280;29633;49.168;9.848;2023-04-28T02:32:04;96614.16;;;15.38;57.97
40992;BME280;29633;49.168;9.848;2023-04-28T02:34:30;96610.44;;;15.41;57.95
40992;BME280;29633;49.168;9.848;2023-04-28T02:36:56;96612.88;;;15.42;58.05
40992;BME280;29633;49.168;9.848;2023-04-28T02:39:21;96610.13;;;15.44;57.92
40992;BME280;29633;49.168;9.848;2023-04-28T02:41:50;96597.91;;;15.44;58.01
40992;BME280;29633;49.168;9.848;2023-04-28T02:44:16;96599.50;;;15.45;58.02
40992;BME280;29633;49.168;9.848;2023-04-28T02:46:42;96601.00;;;15.48;58.08
40992;BME280;29633;49.168;9.848;2023-04-28T02:49:08;96593.97;;;15.48;58.16
40992;BME280;29633;49.168;9.848;2023-04-28T02:51:33;96591.66;;;15.45;58.09
40992;BME280;29633;49.168;9.848;2023-04-28T02:53:59;96581.41;;;15.44;58.23
40992;BME280;29633;49.168;9.848;2023-04-28T02:56:25;96594.28;;;15.45;58.24
40992;BME280;29633;49.168;9.848;2023-04-28T02:58:51;96593.31;;;15.46;58.17
40992;BME280;29633;49.168;9.848;2023-04-28T03:01:17;96588.91;;;15.47;58.20
40992;BME280;29633;49.168;9.848;2023-04-28T03:03:42;96588.75;;;15.48;58.30
40992;BME280;29633;49.168;9.848;2023-04-28T03:06:08;96582.72;;;15.48;58.30
40992;BME280;29633;49.168;9.848;2023-04-28T03:08:34;96586.84;;;15.50;58.33
40992;BME280;29633;49.168;9.848;2023-04-28T03:10:59;96578.84;;;15.52;58.36
40992;BME280;29633;49.168;9.848;2023-04-28T03:13:25;96586.00;;;15.50;58.37
40992;BME280;29633;49.168;9.848;2023-04-28T03:15:51;96594.13;;;15.47;58.45
40992;BME280;29633;49.168;9.848;2023-04-28T03:18:17;96596.91;;;15.45;58.41
40992;BME280;29633;49.168;9.848;2023-04-28T03:20:43;96594.13;;;15.47;58.40
40992;BME280;29633;49.168;9.848;2023-04-28T03:23:09;96587.44;;;15.44;58.44
40992;BME280;29633;49.168;9.848;2023-04-28T03:25:34;96589.69;;;15.39;58.41
40992;BME280;29633;49.168;9.848;2023-04-28T03:28:00;96581.03;;;15.39;58.43
40992;BME280;29633;49.168;9.848;2023-04-28T03:30:26;96577.59;;;15.38;58.52
40992;BME280;29633;49.168;9.848;2023-04-28T03:32:51;96577.59;;;15.38;58.46
40992;BME280;29633;49.168;9.848;2023-04-28T03:35:17;96573.38;;;15.37;58.63
40992;BME280;29633;49.168;9.848;2023-04-28T03:37:43;96573.19;;;15.39;58.55
40992;BME280;29633;49.168;9.848;2023-04-28T03:40:09;96573.06;;;15.40;58.64
40992;BME280;29633;49.168;9.848;2023-04-28T03:42:35;96568.81;;;15.39;58.60
40992;BME280;29633;49.168;9.848;2023-04-28T03:45:01;96567.97;;;15.39;58.64
40992;BME280;29633;49.168;9.848;2023-04-28T03:47:27;96580.56;;;15.43;58.63
40992;BME280;29633;49.168;9.848;2023-04-28T03:49:52;96570.78;;;15.45;58.72
40992;BME280;29633;49.168;9.848;2023-04-28T03:52:18;96567.19;;;15.46;58.58
40992;BME280;29633;49.168;9.848;2023-04-28T03:54:44;96566.22;;;15.47;59.10
40992;BME280;29633;49.168;9.848;2023-04-28T03:57:10;96563.63;;;15.47;58.75
40992;BME280;29633;49.168;9.848;2023-04-28T03:59:37;96556.75;;;15.46;58.90
40992;BME280;29633;49.168;9.848;2023-04-28T04:02:02;96566.91;;;15.49;58.79
40992;BME280;29633;49.168;9.848;2023-04-28T04:04:28;96556.13;;;15.52;58.75
40992;BME280;29633;49.168;9.848;2023-04-28T04:06:54;96559.09;;;15.57;58.53
40992;BME280;29633;49.168;9.848;2023-04-28T04:09:20;96560.06;;;15.56;58.71
40992;BME280;29633;49.168;9.848;2023-04-28T04:11:45;96553.22;;;15.55;58.87
40992;BME280;29633;49.168;9.848;2023-04-28T04:14:11;96541.13;;;15.54;58.51
40992;BME280;29633;49.168;9.848;2023-04-28T04:16:37;96550.75;;;15.54;58.81
40992;BME280;29633;49.168;9.848;2023-04-28T04:19:02;96544.72;;;15.53;58.86
40992;BME280;29633;49.168;9.848;2023-04-28T04:21:28;96551.91;;;15.51;58.96
40992;BME280;29633;49.168;9.848;2023-04-28T04:23:54;96553.84;;;15.49;58.86
40992;BME280;29633;49.168;9.848;2023-04-28T04:26:19;96549.72;;;15.47;59.05
40992;BME280;29633;49.168;9.848;2023-04-28T04:28:45;96548.91;;;15.46;59.04
40992;BME280;29633;49.168;9.848;2023-04-28T04:31:11;96548.25;;;15.44;59.02
40992;BME280;29633;49.168;9.848;2023-04-28T04:33:36;96543.31;;;15.41;59.08
40992;BME280;29633;49.168;9.848;2023-04-28T04:36:03;96539.59;;;15.44;59.12
40992;BME280;29633;49.168;9.848;2023-04-28T04:38:29;96540.44;;;15.44;59.23
40992;BME280;29633;49.168;9.848;2023-04-28T04:40:55;96538.47;;;15.46;59.08
40992;BME280;29633;49.168;9.848;2023-04-28T04:43:21;96538.84;;;15.51;59.03
40992;BME280;29633;49.168;9.848;2023-04-28T04:45:46;96542.78;;;15.55;58.97
40992;BME280;29633;49.168;9.848;2023-04-28T04:48:13;96538.84;;;15.59;59.10
40992;BME280;29633;49.168;9.848;2023-04-28T04:50:39;96534.44;;;15.60;59.09
40992;BME280;29633;49.168;9.848;2023-04-28T04:53:05;96534.94;;;15.63;58.90
40992;BME280;29633;49.168;9.848;2023-04-28T04:55:31;96533.97;;;15.64;59.14
40992;BME280;29633;49.168;9.848;2023-04-28T04:57:56;96537.22;;;15.66;59.18
40992;BME280;29633;49.168;9.848;2023-04-28T05:00:22;96530.19;;;15.67;59.37
40992;BME280;29633;49.168;9.848;2023-04-28T05:02:48;96527.44;;;15.68;59.31
40992;BME280;29633;49.168;9.848;2023-04-28T05:05:13;96523.69;;;15.71;59.28
40992;BME280;29633;49.168;9.848;2023-04-28T05:07:39;96526.16;;;15.72;59.40
40992;BME280;29633;49.168;9.848;2023-04-28T05:10:05;96529.59;;;15.73;59.35
40992;BME280;29633;49.168;9.848;2023-04-28T05:12:33;96517.16;;;15.75;59.45
40992;BME280;29633;49.168;9.848;2023-04-28T05:14:59;96509.31;;;15.75;59.45
40992;BME280;29633;49.168;9.848;2023-04-28T05:17:24;96512.59;;;15.77;59.49
40992;BME280;29633;49.168;9.848;2023-04-28T05:19:50;96517.97;;;15.75;59.56
40992;BME280;29633;49.168;9.848;2023-04-28T05:22:16;96523.06;;;15.77;59.45
40992;BME280;29633;49.168;9.848;2023-04-28T05:24:41;96530.06;;;15.77;59.48
40992;BME280;29633;49.168;9.848;2023-04-28T05:27:07;96508.34;;;15.76;59.53
40992;BME280;29633;49.168;9.848;2023-04-28T05:29:32;96532.03;;;15.74;59.74
40992;BME280;29633;49.168;9.848;2023-04-28T05:31:58;96527.13;;;15.71;59.62
40992;BME280;29633;49.168;9.848;2023-04-28T05:34:24;96517.00;;;15.68;59.79
40992;BME280;29633;49.168;9.848;2023-04-28T05:36:50;96517.81;;;15.69;59.74
40992;BME280;29633;49.168;9.848;2023-04-28T05:39:16;96525.47;;;15.70;59.81
40992;BME280;29633;49.168;9.848;2023-04-28T05:41:42;96512.09;;;15.65;59.83
40992;BME280;29633;49.168;9.848;2023-04-28T05:44:07;96514.84;;;15.64;59.68
40992;BME280;29633;49.168;9.848;2023-04-28T05:46:33;96510.44;;;15.64;59.97
40992;BME280;29633;49.168;9.848;2023-04-28T05:48:59;96507.97;;;15.63;60.02
40992;BME280;29633;49.168;9.848;2023-04-28T05:51:24;96496.56;;;15.64;60.01
40992;BME280;29633;49.168;9.848;2023-04-28T05:53:51;96510.31;;;15.66;59.84
40992;BME280;29633;49.168;9.848;2023-04-28T05:56:17;96515.34;;;15.67;60.07
40992;BME280;29633;49.168;9.848;2023-04-28T05:58:42;96521.06;;;15.71;59.98
40992;BME280;29633;49.168;9.848;2023-04-28T06:01:12;96515.03;;;15.70;59.95
40992;BME280;29633;49.168;9.848;2023-04-28T06:03:38;96512.41;;;15.70;60.00
40992;BME280;29633;49.168;9.848;2023-04-28T06:06:07;96516.03;;;15.69;60.18
40992;BME280;29633;49.168;9.848;2023-04-28T06:08:33;96526.28;;;15.71;60.06
40992;BME280;29633;49.168;9.848;2023-04-28T06:10:59;96512.91;;;15.66;60.17
40992;BME280;29633;49.168;9.848;2023-04-28T06:13:24;96519.44;;;15.62;60.05
40992;BME280;29633;49.168;9.848;2023-04-28T06:15:50;96518.75;;;15.60;60.39
40992;BME280;29633;49.168;9.848;2023-04-28T06:18:16;96510.78;;;15.61;60.45
40992;BME280;29633;49.168;9.848;2023-04-28T06:20:41;96507.34;;;15.61;60.28
40992;BME280;29633;49.168;9.848;2023-04-28T06:23:07;96508.16;;;15.61;60.37
40992;BME280;29633;49.168;9.848;2023-04-28T06:25:34;96501.28;;;15.60;60.55
40992;BME280;29633;49.168;9.848;2023-04-28T06:28:01;96501.16;;;15.62;60.60
40992;BME280;29633;49.168;9.848;2023-04-28T06:30:26;96501.47;;;15.59;60.54
40992;BME280;29633;49.168;9.848;2023-04-28T06:32:52;96502.91;;;15.53;60.67
40992;BME280;29633;49.168;9.848;2023-04-28T06:35:18;96512.03;;;15.49;60.70
40992;BME280;29633;49.168;9.848;2023-04-28T06:37:43;96502.72;;;15.47;60.85
40992;BME280;29633;49.168;9.848;2023-04-28T06:40:09;96510.69;;;15.45;60.95
40992;BME280;29633;49.168;9.848;2023-04-28T06:42:35;96508.41;;;15.42;60.85
40992;BME280;29633;49.168;9.848;2023-04-28T06:45:01;96516.09;;;15.44;60.99
40992;BME280;29633;49.168;9.848;2023-04-28T06:47:27;96512.97;;;15.48;60.92
40992;BME280;29633;49.168;9.848;2023-04-28T06:49:53;96523.00;;;15.53;60.97
40992;BME280;29633;49.168;9.848;2023-04-28T06:52:18;96534.13;;;15.55;60.99
40992;BME280;29633;49.168;9.848;2023-04-28T06:54:46;96532.00;;;15.58;60.99
40992;BME280;29633;49.168;9.848;2023-04-28T06:57:12;96535.94;;;15.62;60.98
40992;BME280;29633;49.168;9.848;2023-04-28T06:59:38;96526.78;;;15.66;61.01
40992;BME280;29633;49.168;9.848;2023-04-28T07:02:04;96523.84;;;15.69;61.23
40992;BME280;29633;49.168;9.848;2023-04-28T07:04:29;96531.53;;;15.71;61.00
40992;BME280;29633;49.168;9.848;2023-04-28T07:06:55;96539.84;;;15.74;61.05
40992;BME280;29633;49.168;9.848;2023-04-28T07:09:20;96544.59;;;15.79;61.11
40992;BME280;29633;49.168;9.848;2023-04-28T07:11:46;96551.31;;;15.82;61.03
40992;BME280;29633;49.168;9.848;2023-04-28T07:14:12;96538.09;;;15.83;61.00
40992;BME280;29633;49.168;9.848;2023-04-28T07:16:37;96533.34;;;15.87;61.17
40992;BME280;29633;49.168;9.848;2023-04-28T07:19:03;96502.63;;;15.89;61.19
40992;BME280;29633;49.168;9.848;2023-04-28T07:21:29;96483.69;;;15.87;61.38
40992;BME280;29633;49.168;9.848;2023-04-28T07:23:54;96486.44;;;15.85;61.14
40992;BME280;29633;49.168;9.848;2023-04-28T07:26:22;96499.84;;;15.82;61.39
40992;BME280;29633;49.168;9.848;2023-04-28T07:28:48;96494.13;;;15.79;61.51
40992;BME280;29633;49.168;9.848;2023-04-28T07:31:13;96511.09;;;15.74;61.66
40992;BME280;29633;49.168;9.848;2023-04-28T07:33:39;96508.97;;;15.70;61.53
40992;BME280;29633;49.168;9.848;2023-04-28T07:36:05;96518.13;;;15.66;61.53
40992;BME280;29633;49.168;9.848;2023-04-28T07:38:33;96518.44;;;15.63;61.73
40992;BME280;29633;49.168;9.848;2023-04-28T07:40:59;96516.00;;;15.61;61.78
40992;BME280;29633;49.168;9.848;2023-04-28T07:43:24;96509.44;;;15.57;61.90
40992;BME280;29633;49.168;9.848;2023-04-28T07:45:50;96503.59;;;15.55;61.95
40992;BME280;29633;49.168;9.848;2023-04-28T07:48:16;96503.59;;;15.55;61.85
40992;BME280;29633;49.168;9.848;2023-04-28T07:50:42;96503.91;;;15.60;61.91
40992;BME280;29633;49.168;9.848;2023-04-28T07:53:07;96506.38;;;15.62;61.86
40992;BME280;29633;49.168;9.848;2023-04-28T07:55:33;96500.63;;;15.66;61.80
40992;BME280;29633;49.168;9.848;2023-04-28T07:57:59;96506.53;;;15.68;61.72
40992;BME280;29633;49.168;9.848;2023-04-28T08:00:24;96512.41;;;15.70;61.91
40992;BME280;29633;49.168;9.848;2023-04-28T08:02:50;96520.59;;;15.75;61.87
40992;BME280;29633;49.168;9.848;2023-04-28T08:07:44;96501.00;;;15.88;62.22
40992;BME280;29633;49.168;9.848;2023-04-28T08:10:10;96501.50;;;15.91;61.87
40992;BME280;29633;49.168;9.848;2023-04-28T08:12:36;96501.19;;;15.94;61.78
40992;BME280;29633;49.168;9.848;2023-04-28T08:15:02;96494.47;;;16.00;61.91
40992;BME280;29633;49.168;9.848;2023-04-28T08:17:28;96490.53;;;16.04;61.83
40992;BME280;29633;49.168;9.848;2023-04-28T08:19:54;96499.84;;;16.06;61.91
40992;BME280;29633;49.168;9.848;2023-04-28T08:22:19;96501.50;;;16.07;61.97
40992;BME280;29633;49.168;9.848;2023-04-28T08:24:45;96506.25;;;16.12;61.95
40992;BME280;29633;49.168;9.848;2023-04-28T08:27:11;96503.63;;;16.12;62.07
40992;BME280;29633;49.168;9.848;2023-04-28T08:29:37;96500.03;;;16.13;61.95
40992;BME280;29633;49.168;9.848;2023-04-28T08:32:03;96495.59;;;16.13;62.10
40992;BME280;29633;49.168;9.848;2023-04-28T08:34:31;96491.53;;;16.11;62.17
40992;BME280;29633;49.168;9.848;2023-04-28T08:36:57;96493.50;;;16.09;62.30
40992;BME280;29633;49.168;9.848;2023-04-28T08:39:23;96495.09;;;16.10;62.23
40992;BME280;29633;49.168;9.848;2023-04-28T08:41:51;96488.91;;;16.11;62.20
40992;BME280;29633;49.168;9.848;2023-04-28T08:44:16;96498.22;;;16.13;62.24
40992;BME280;29633;49.168;9.848;2023-04-28T08:46:43;96485.97;;;16.14;62.37
40992;BME280;29633;49.168;9.848;2023-04-28T08:49:14;96479.13;;;16.13;62.34
40992;BME280;29633;49.168;9.848;2023-04-28T08:51:54;96485.31;;;16.12;62.46
40992;BME280;29633;49.168;9.848;2023-04-28T08:54:20;96496.75;;;16.11;62.54
40992;BME280;29633;49.168;9.848;2023-04-28T08:56:46;96507.22;;;16.11;62.67
40992;BME280;29633;49.168;9.848;2023-04-28T08:59:12;96512.44;;;16.11;62.53
40992;BME280;29633;49.168;9.848;2023-04-28T09:01:38;96514.25;;;16.10;62.54
40992;BME280;29633;49.168;9.848;2023-04-28T09:04:04;96511.47;;;16.12;62.55
40992;BME280;29633;49.168;9.848;2023-04-28T09:06:37;96517.34;;;16.14;62.61
40992;BME280;29633;49.168;9.848;2023-04-28T09:11:55;96520.78;;;16.22;62.61
40992;BME280;29633;49.168;9.848;2023-04-28T09:14:22;96529.28;;;16.24;62.69
40992;BME280;29633;49.168;9.848;2023-04-28T09:16:51;96524.88;;;16.25;62.75
40992;BME280;29633;49.168;9.848;2023-04-28T09:19:16;96520.44;;;16.25;62.81
40992;BME280;29633;49.168;9.848;2023-04-28T09:21:53;96519.81;;;16.23;62.99
40992;BME280;29633;49.168;9.848;2023-04-28T09:24:35;96519.63;;;16.25;62.96
40992;BME280;29633;49.168;9.848;2023-04-28T09:27:04;96517.00;;;16.25;62.96
40992;BME280;29633;49.168;9.848;2023-04-28T09:29:32;96507.38;;;16.25;63.15
40992;BME280;29633;49.168;9.848;2023-04-28T09:32:11;96514.25;;;16.27;63.19
40992;BME280;29633;49.168;9.848;2023-04-28T09:34:45;96498.56;;;16.27;63.04
40992;BME280;29633;49.168;9.848;2023-04-28T09:37:17;96497.25;;;16.31;63.05
40992;BME280;29633;49.168;9.848;2023-04-28T09:39:51;96496.09;;;16.33;63.13
40992;BME280;29633;49.168;9.848;2023-04-28T09:44:56;96505.88;;;16.39;63.37
40992;BME280;29633;49.168;9.848;2023-04-28T09:47:22;96495.75;;;16.44;63.37
40992;BME280;29633;49.168;9.848;2023-04-28T09:49:56;96497.22;;;16.47;63.51
40992;BME280;29633;49.168;9.848;2023-04-28T09:52:23;96489.69;;;16.52;63.48
40992;BME280;29633;49.168;9.848;2023-04-28T09:54:49;96488.53;;;16.54;63.69
40992;BME280;29633;49.168;9.848;2023-04-28T09:57:16;96486.28;;;16.59;63.83
40992;BME280;29633;49.168;9.848;2023-04-28T09:59:50;96496.75;;;16.59;63.77
40992;BME280;29633;49.168;9.848;2023-04-28T10:02:17;96493.13;;;16.60;63.84
40992;BME280;29633;49.168;9.848;2023-04-28T10:04:44;96491.16;;;16.62;63.88
40992;BME280;29633;49.168;9.848;2023-04-28T10:07:11;96496.06;;;16.65;64.02
40992;BME280;29633;49.168;9.848;2023-04-28T10:09:37;96489.19;;;16.64;64.46
40992;BME280;29633;49.168;9.848;2023-04-28T10:12:04;96486.25;;;16.67;64.65
40992;BME280;29633;49.168;9.848;2023-04-28T10:14:30;96484.28;;;16.69;64.51
40992;BME280;29633;49.168;9.848;2023-04-28T10:16:57;96488.19;;;16.73;64.60
40992;BME280;29633;49.168;9.848;2023-04-28T10:19:23;96482.94;;;16.82;64.69
40992;BME280;29633;49.168;9.848;2023-04-28T10:22:03;96487.50;;;16.88;64.94
40992;BME280;29633;49.168;9.848;2023-04-28T10:24:32;96485.19;;;16.93;64.75
40992;BME280;29633;49.168;9.848;2023-04-28T10:27:13;96486.78;;;17.02;64.77
40992;BME280;29633;49.168;9.848;2023-04-28T10:29:39;96487.09;;;17.07;64.96
40992;BME280;29633;49.168;9.848;2023-04-28T10:32:22;96476.28;;;17.10;65.13
40992;BME280;29633;49.168;9.848;2023-04-28T10:34:49;96488.34;;;17.19;65.14
40992;BME280;29633;49.168;9.848;2023-04-28T10:37:15;96479.97;;;17.23;65.04
40992;BME280;29633;49.168;9.848;2023-04-28T10:42:51;96478.25;;;17.39;65.38
40992;BME280;29633;49.168;9.848;2023-04-28T10:48:18;96476.34;;;17.55;65.25
40992;BME280;29633;49.168;9.848;2023-04-28T10:58:36;96484.09;;;17.80;65.35
40992;BME280;29633;49.168;9.848;2023-04-28T11:04:08;96484.38;;;17.85;65.36
40992;BME280;29633;49.168;9.848;2023-04-28T11:06:45;96491.88;;;17.88;65.34
40992;BME280;29633;49.168;9.848;2023-04-28T11:11:37;96482.16;;;17.96;65.68
40992;BME280;29633;49.168;9.848;2023-04-28T11:17:05;96497.53;;;17.99;65.80
40992;BME280;29633;49.168;9.848;2023-04-28T11:21:59;96496.38;;;18.02;65.85
40992;BME280;29633;49.168;9.848;2023-04-28T11:24:26;96496.03;;;18.05;65.72
40992;BME280;29633;49.168;9.848;2023-04-28T11:26:53;96498.31;;;18.08;65.91
40992;BME280;29633;49.168;9.848;2023-04-28T11:29:36;96489.63;;;18.07;66.27
40992;BME280;29633;49.168;9.848;2023-04-28T11:32:07;96492.41;;;18.06;65.86
40992;BME280;29633;49.168;9.848;2023-04-28T11:34:33;96494.41;;;18.04;66.15
40992;BME280;29633;49.168;9.848;2023-04-28T11:36:59;96495.03;;;18.06;66.22
40992;BME280;29633;49.168;9.848;2023-04-28T11:39:29;96488.81;;;18.07;65.81
40992;BME280;29633;49.168;9.848;2023-04-28T11:41:55;96494.66;;;18.09;65.95
40992;BME280;29633;49.168;9.848;2023-04-28T11:44:24;96494.16;;;18.13;66.11
40992;BME280;29633;49.168;9.848;2023-04-28T11:46:52;96487.56;;;18.17;66.01
40992;BME280;29633;49.168;9.848;2023-04-28T11:49:23;96490.81;;;18.19;66.09
40992;BME280;29633;49.168;9.848;2023-04-28T11:51:50;96481.69;;;18.15;65.98
40992;BME280;29633;49.168;9.848;2023-04-28T11:54:24;96469.38;;;18.16;66.05
40992;BME280;29633;49.168;9.848;2023-04-28T11:56:50;96470.03;;;18.18;66.05
40992;BME280;29633;49.168;9.848;2023-04-28T11:59:17;96467.69;;;18.23;66.03
40992;BME280;29633;49.168;9.848;2023-04-28T12:01:46;96479.44;;;18.27;66.19
40992;BME280;29633;49.168;9.848;2023-04-28T12:04:12;96473.56;;;18.25;65.89
40992;BME280;29633;49.168;9.848;2023-04-28T12:06:39;96474.84;;;18.29;66.16
40992;BME280;29633;49.168;9.848;2023-04-28T12:09:14;96472.84;;;18.31;66.26
40992;BME280;29633;49.168;9.848;2023-04-28T12:11:58;96482.34;;;18.32;66.57
40992;BME280;29633;49.168;9.848;2023-04-28T12:14:27;96488.88;;;18.36;66.44
40992;BME280;29633;49.168;9.848;2023-04-28T12:16:53;96484.09;;;18.40;66.40
40992;BME280;29633;49.168;9.848;2023-04-28T12:19:19;96483.88;;;18.41;66.52
40992;BME280;29633;49.168;9.848;2023-04-28T12:22:06;96478.31;;;18.44;66.25
40992;BME280;29633;49.168;9.848;2023-04-28T12:24:32;96481.75;;;18.45;66.41
40992;BME280;29633;49.168;9.848;2023-04-28T12:27:16;96480.38;;;18.49;66.29
40992;BME280;29633;49.168;9.848;2023-04-28T12:29:44;96473.19;;;18.51;66.51
40992;BME280;29633;49.168;9.848;2023-04-28T12:32:13;96486.94;;;18.53;66.60
40992;BME280;29633;49.168;9.848;2023-04-28T12:34:40;96495.63;;;18.53;66.56
40992;BME280;29633;49.168;9.848;2023-04-28T12:37:06;96499.25;;;18.52;66.45
40992;BME280;29633;49.168;9.848;2023-04-28T12:39:33;96499.06;;;18.54;66.81
40992;BME280;29633;49.168;9.848;2023-04-28T12:41:59;96497.88;;;18.56;66.50
40992;BME280;29633;49.168;9.848;2023-04-28T12:44:27;96506.22;;;18.60;66.64
40992;BME280;29633;49.168;9.848;2023-04-28T12:46:53;96500.16;;;18.59;66.85
40992;BME280;29633;49.168;9.848;2023-04-28T12:49:20;96507.84;;;18.61;66.73
40992;BME280;29633;49.168;9.848;2023-04-28T12:51:46;96500.81;;;18.61;66.79
40992;BME280;29633;49.168;9.848;2023-04-28T12:54:11;96495.66;;;18.68;66.75
40992;BME280;29633;49.168;9.848;2023-04-28T12:56:37;96495.47;;;18.70;66.80
40992;BME280;29633;49.168;9.848;2023-04-28T12:59:03;96491.84;;;18.71;66.99
40992;BME280;29633;49.168;9.848;2023-04-28T13:01:29;96495.72;;;18.75;66.75
40992;BME280;29633;49.168;9.848;2023-04-28T13:03:55;96504.44;;;18.75;66.83
40992;BME280;29633;49.168;9.848;2023-04-28T13:06:23;96502.16;;;18.72;66.95
40992;BME280;29633;49.168;9.848;2023-04-28T13:08:48;96507.41;;;18.72;66.96
40992;BME280;29633;49.168;9.848;2023-04-28T13:11:14;96501.34;;;18.72;67.09
40992;BME280;29633;49.168;9.848;2023-04-28T13:13:40;96505.97;;;18.70;67.19
40992;BME280;29633;49.168;9.848;2023-04-28T13:16:07;96495.81;;;18.66;67.24
40992;BME280;29633;49.168;9.848;2023-04-28T13:18:33;96501.88;;;18.67;67.42
40992;BME280;29633;49.168;9.848;2023-04-28T13:20:58;96494.66;;;18.69;67.26
40992;BME280;29633;49.168;9.848;2023-04-28T13:23:24;96496.63;;;18.67;67.36
40992;BME280;29633;49.168;9.848;2023-04-28T13:25:49;96493.19;;;18.66;67.65
40992;BME280;29633;49.168;9.848;2023-04-28T13:28:15;96502.69;;;18.67;67.57
40992;BME280;29633;49.168;9.848;2023-04-28T13:30:41;96508.16;;;18.66;67.70